Montreal-Est, Canada
Current Conditions -  °F | °C
As of 11:00 PM on Monday 22 Dec 2014 (Local Time) from CYHU Reporting Station
Overcast Overcast  
Wind Chill: 10°   Ceiling: 4600
Heat Index: 21°   Visibility: 9mi
Dew Point: 18°   Wind: 10mph
Humidity: 86%   Direction: 30°NNE
Pressure: 30.3"   Gusts: NA
Location:  45.63°N, 73.52°W
Report Text: CYHU 230400Z AUTO 03009KT 9SM OVC046 M06/M08 A3030 RMK SLP262
Loading
Personal Weather Stations






























Interactive Weather Map New forecast layout! Learn more

10-Day Weather Forecast

Advertisements
Track Severe Weather on mobile